Andrew Cargill Macmillan — WDB9869 — position and weather

sailwx.info

Track history (hours):
 
Tides and Currents Weather Stations Pressure Air Temp Water Temp Dewpoint Dewpoint Depression Visibility Wind Speed Wind Dir Waves Ship Positions

Andrew Cargill Macmillan

Owner: American River Transportation Company, St Louis, MO. More information available from US FCC via Universal Licensing System and Coast Guard Vessel Documentation Center.

Last reported at 2018-May-18 15:50 UTC. Time now 2018-May-21 01:16 UTC.
Position N 31°58' W 091°11'.

Length 58 m; draft 3.7 m.

Type: Ship (hazmat cat B). MMSI: 366984240.

Date/timePositionNaut miles runAvg speedWind from/ knotsBaromVisibWave heightAir tempDewpointWater temp
2018-May-18 15:50N 31°58' W 091°11'4 9.6
2018-May-18 15:26N 31°59' W 091°06'4 9.9
2018-May-18 15:00N 32°03' W 091°04'5 9.3
2018-May-18 14:30N 32°07' W 091°06'1 2.4
2018-May-18 14:00N 32°08' W 091°06'4 7.4
2018-May-18 13:30N 32°07' W 091°02'5 9.5
2018-May-18 13:00N 32°12' W 090°60'510.0
2018-May-18 12:30N 32°16' W 090°57'4 8.6
2018-May-18 12:00N 32°19' W 090°54'1 2.5
2018-May-18 11:30N 32°21' W 090°55'4 7.7
2018-May-18 11:00N 32°21' W 090°59'4 7.5
2018-May-18 10:30N 32°25' W 090°60'3 6.9
2018-May-18 10:00N 32°26' W 091°03'4 7.4
2018-May-18 09:30N 32°29' W 091°07'4 8.6
2018-May-18 09:00N 32°33' W 091°06'4 7.6
2018-May-18 08:30N 32°36' W 091°09'4 7.7
2018-May-18 08:00N 32°40' W 091°08'4 3.1
2018-May-18 06:38N 32°44' W 091°08'  
2018-May-15 10:40N 38°11' W 090°20'20 8.4
2018-May-15 08:17N 38°31' W 090°16'5 8.6
2018-May-15 07:39N 38°36' W 090°12'0 2.7
2018-May-15 07:30N 38°36' W 090°12'0 0.0
2018-May-15 05:00N 38°36' W 090°12'0 0.5
2018-May-15 04:26N 38°36' W 090°12'1 1.1
2018-May-15 03:14N 38°35' W 090°13'  
Track history (hours):
 
Tides and Currents Weather Stations Pressure Air Temp Water Temp Dewpoint Dewpoint Depression Visibility Wind Speed Wind Dir Waves Ship Positions

Andrew Cargill Macmillan

Owner: American River Transportation Company, St Louis, MO. More information available from US FCC via Universal Licensing System and Coast Guard Vessel Documentation Center.

Last reported at 2018-May-18 15:50 UTC. Time now 2018-May-21 01:16 UTC.
Position N 31°58' W 091°11'.

Length 58 m; draft 3.7 m.

Type: Ship (hazmat cat B). MMSI: 366984240.

Date/timePositionNaut miles runAvg speedWind from/ knotsBaromVisibWave heightAir tempDewpointWater temp
2018-May-18 15:50N 31°58' W 091°11'4 9.6
2018-May-18 15:26N 31°59' W 091°06'4 9.9
2018-May-18 15:00N 32°03' W 091°04'5 9.3
2018-May-18 14:30N 32°07' W 091°06'1 2.4
2018-May-18 14:00N 32°08' W 091°06'4 7.4
2018-May-18 13:30N 32°07' W 091°02'5 9.5
2018-May-18 13:00N 32°12' W 090°60'510.0
2018-May-18 12:30N 32°16' W 090°57'4 8.6
2018-May-18 12:00N 32°19' W 090°54'1 2.5
2018-May-18 11:30N 32°21' W 090°55'4 7.7
2018-May-18 11:00N 32°21' W 090°59'4 7.5
2018-May-18 10:30N 32°25' W 090°60'3 6.9
2018-May-18 10:00N 32°26' W 091°03'4 7.4
2018-May-18 09:30N 32°29' W 091°07'4 8.6
2018-May-18 09:00N 32°33' W 091°06'4 7.6
2018-May-18 08:30N 32°36' W 091°09'4 7.7
2018-May-18 08:00N 32°40' W 091°08'4 3.1
2018-May-18 06:38N 32°44' W 091°08'  
2018-May-15 10:40N 38°11' W 090°20'20 8.4
2018-May-15 08:17N 38°31' W 090°16'5 8.6
2018-May-15 07:39N 38°36' W 090°12'0 2.7
2018-May-15 07:30N 38°36' W 090°12'0 0.0
2018-May-15 05:00N 38°36' W 090°12'0 0.5
2018-May-15 04:26N 38°36' W 090°12'1 1.1
2018-May-15 03:14N 38°35' W 090°13'  

Dump ship's entire track history